Terminal Aerodrome Forecast
Issued by NWS

Home | Current Version | Previous Version | Graphics & Text | Print | Product List | Glossary On
Versions: 1 2 3 4 5 6 7 8 9 10 11 12 13 14 15 16 17 18 19 20 21 22 23 24 25 26 27 28
410
FTUS43 KLOT 180912 AAA
TAFMDW
TAF AMD
KMDW 180912Z 1809/1912 24007KT 4SM -DZ BR OVC007
     FM181130 24007KT 1 1/2SM -DZ BR OVC005
     FM181500 25010KT 5SM BR OVC007
     FM181700 24011KT P6SM OVC015
     FM182000 24010KT P6SM BKN025
     FM190000 22012KT P6SM SKC WS020/27045KT=

USA.gov is the U.S. government's official web portal to all federal, state and local government web resources and services.